sensor_id;sensor_type;location;lat;lon;timestamp;P1;durP1;ratioP1;P2;durP2;ratioP2
17763;SDS011;22245;52.832;13.816;2022-12-10T00:02:03;26.17;;;12.03;;
17763;SDS011;22245;52.832;13.816;2022-12-10T00:05:25;25.13;;;11.80;;
17763;SDS011;22245;52.832;13.816;2022-12-10T00:08:47;27.10;;;11.60;;
17763;SDS011;22245;52.832;13.816;2022-12-10T00:12:11;29.27;;;12.63;;
17763;SDS011;22245;52.832;13.816;2022-12-10T00:15:33;26.97;;;12.10;;
17763;SDS011;22245;52.832;13.816;2022-12-10T00:18:56;26.63;;;11.70;;
17763;SDS011;22245;52.832;13.816;2022-12-10T00:22:18;27.70;;;12.40;;
17763;SDS011;22245;52.832;13.816;2022-12-10T00:25:39;26.53;;;11.87;;
17763;SDS011;22245;52.832;13.816;2022-12-10T00:29:03;29.30;;;12.90;;
17763;SDS011;22245;52.832;13.816;2022-12-10T00:32:28;28.90;;;12.80;;
17763;SDS011;22245;52.832;13.816;2022-12-10T00:35:50;25.60;;;12.33;;
17763;SDS011;22245;52.832;13.816;2022-12-10T00:39:13;27.60;;;11.87;;
17763;SDS011;22245;52.832;13.816;2022-12-10T00:42:36;26.33;;;11.80;;
17763;SDS011;22245;52.832;13.816;2022-12-10T00:46:00;26.60;;;12.30;;
17763;SDS011;22245;52.832;13.816;2022-12-10T00:49:22;31.60;;;12.93;;
17763;SDS011;22245;52.832;13.816;2022-12-10T00:52:44;28.73;;;12.33;;
17763;SDS011;22245;52.832;13.816;2022-12-10T00:56:07;26.67;;;11.90;;
17763;SDS011;22245;52.832;13.816;2022-12-10T00:59:29;26.73;;;11.87;;
17763;SDS011;22245;52.832;13.816;2022-12-10T01:02:52;27.77;;;12.77;;
17763;SDS011;22245;52.832;13.816;2022-12-10T01:06:16;26.27;;;12.07;;
17763;SDS011;22245;52.832;13.816;2022-12-10T01:09:41;24.77;;;11.27;;
17763;SDS011;22245;52.832;13.816;2022-12-10T01:13:03;28.17;;;12.20;;
17763;SDS011;22245;52.832;13.816;2022-12-10T01:16:25;30.27;;;11.83;;
17763;SDS011;22245;52.832;13.816;2022-12-10T01:19:49;26.47;;;11.57;;
17763;SDS011;22245;52.832;13.816;2022-12-10T01:23:10;30.83;;;13.10;;
17763;SDS011;22245;52.832;13.816;2022-12-10T01:26:33;28.43;;;13.20;;
17763;SDS011;22245;52.832;13.816;2022-12-10T01:29:55;28.87;;;12.67;;
17763;SDS011;22245;52.832;13.816;2022-12-10T01:33:17;31.37;;;13.67;;
17763;SDS011;22245;52.832;13.816;2022-12-10T01:36:41;31.10;;;13.47;;
17763;SDS011;22245;52.832;13.816;2022-12-10T01:40:04;29.60;;;12.23;;
17763;SDS011;22245;52.832;13.816;2022-12-10T01:43:29;32.30;;;13.70;;
17763;SDS011;22245;52.832;13.816;2022-12-10T01:47:09;28.90;;;13.20;;
17763;SDS011;22245;52.832;13.816;2022-12-10T01:50:31;31.90;;;13.97;;
17763;SDS011;22245;52.832;13.816;2022-12-10T01:53:54;29.03;;;12.87;;
17763;SDS011;22245;52.832;13.816;2022-12-10T01:57:18;31.73;;;13.83;;
17763;SDS011;22245;52.832;13.816;2022-12-10T02:00:43;26.50;;;11.97;;
17763;SDS011;22245;52.832;13.816;2022-12-10T02:04:12;29.50;;;13.20;;
17763;SDS011;22245;52.832;13.816;2022-12-10T02:07:53;30.07;;;12.93;;
17763;SDS011;22245;52.832;13.816;2022-12-10T02:11:24;28.77;;;13.07;;
17763;SDS011;22245;52.832;13.816;2022-12-10T02:14:52;26.60;;;12.17;;
17763;SDS011;22245;52.832;13.816;2022-12-10T02:18:19;32.50;;;13.73;;
17763;SDS011;22245;52.832;13.816;2022-12-10T02:21:43;29.13;;;13.30;;
17763;SDS011;22245;52.832;13.816;2022-12-10T02:25:08;27.17;;;12.87;;
17763;SDS011;22245;52.832;13.816;2022-12-10T02:28:38;29.90;;;13.70;;
17763;SDS011;22245;52.832;13.816;2022-12-10T02:32:08;30.00;;;13.77;;
17763;SDS011;22245;52.832;13.816;2022-12-10T02:35:35;29.00;;;13.77;;
17763;SDS011;22245;52.832;13.816;2022-12-10T02:39:02;30.63;;;14.03;;
17763;SDS011;22245;52.832;13.816;2022-12-10T02:42:28;31.93;;;14.30;;
17763;SDS011;22245;52.832;13.816;2022-12-10T02:45:52;27.93;;;12.97;;
17763;SDS011;22245;52.832;13.816;2022-12-10T02:49:16;32.50;;;14.77;;
17763;SDS011;22245;52.832;13.816;2022-12-10T02:52:39;37.33;;;15.43;;
17763;SDS011;22245;52.832;13.816;2022-12-10T02:56:05;41.70;;;17.97;;
17763;SDS011;22245;52.832;13.816;2022-12-10T02:59:40;35.33;;;15.33;;
17763;SDS011;22245;52.832;13.816;2022-12-10T03:03:18;27.77;;;12.87;;
17763;SDS011;22245;52.832;13.816;2022-12-10T03:07:00;30.03;;;14.23;;
17763;SDS011;22245;52.832;13.816;2022-12-10T03:10:26;27.40;;;12.33;;
17763;SDS011;22245;52.832;13.816;2022-12-10T03:13:54;27.97;;;13.73;;
17763;SDS011;22245;52.832;13.816;2022-12-10T03:17:19;29.00;;;13.50;;
17763;SDS011;22245;52.832;13.816;2022-12-10T03:20:42;27.50;;;13.80;;
17763;SDS011;22245;52.832;13.816;2022-12-10T03:24:08;29.27;;;13.00;;
17763;SDS011;22245;52.832;13.816;2022-12-10T03:27:31;26.47;;;12.10;;
17763;SDS011;22245;52.832;13.816;2022-12-10T03:30:54;27.40;;;12.77;;
17763;SDS011;22245;52.832;13.816;2022-12-10T03:34:17;22.90;;;11.57;;
17763;SDS011;22245;52.832;13.816;2022-12-10T03:37:39;24.50;;;11.63;;
17763;SDS011;22245;52.832;13.816;2022-12-10T03:41:03;24.50;;;11.93;;
17763;SDS011;22245;52.832;13.816;2022-12-10T03:44:29;23.27;;;11.87;;
17763;SDS011;22245;52.832;13.816;2022-12-10T03:47:52;26.83;;;12.07;;
17763;SDS011;22245;52.832;13.816;2022-12-10T03:51:14;22.30;;;11.17;;
17763;SDS011;22245;52.832;13.816;2022-12-10T03:54:36;22.30;;;10.93;;
17763;SDS011;22245;52.832;13.816;2022-12-10T03:57:59;21.80;;;10.60;;
17763;SDS011;22245;52.832;13.816;2022-12-10T04:01:21;21.67;;;10.80;;
17763;SDS011;22245;52.832;13.816;2022-12-10T04:04:43;20.70;;;10.40;;
17763;SDS011;22245;52.832;13.816;2022-12-10T04:08:05;16.40;;;8.70;;
17763;SDS011;22245;52.832;13.816;2022-12-10T04:11:27;20.10;;;9.80;;
17763;SDS011;22245;52.832;13.816;2022-12-10T04:14:50;17.37;;;9.70;;
17763;SDS011;22245;52.832;13.816;2022-12-10T04:18:29;17.07;;;8.70;;
17763;SDS011;22245;52.832;13.816;2022-12-10T04:21:51;15.83;;;8.50;;
17763;SDS011;22245;52.832;13.816;2022-12-10T04:25:30;17.47;;;8.93;;
17763;SDS011;22245;52.832;13.816;2022-12-10T04:29:14;16.07;;;8.47;;
17763;SDS011;22245;52.832;13.816;2022-12-10T04:32:37;15.47;;;8.33;;
17763;SDS011;22245;52.832;13.816;2022-12-10T04:35:59;14.73;;;7.90;;
17763;SDS011;22245;52.832;13.816;2022-12-10T04:39:21;16.93;;;8.87;;
17763;SDS011;22245;52.832;13.816;2022-12-10T04:42:43;17.60;;;8.90;;
17763;SDS011;22245;52.832;13.816;2022-12-10T04:46:04;17.17;;;9.03;;
17763;SDS011;22245;52.832;13.816;2022-12-10T04:49:27;13.87;;;8.23;;
17763;SDS011;22245;52.832;13.816;2022-12-10T04:52:51;14.87;;;7.93;;
17763;SDS011;22245;52.832;13.816;2022-12-10T04:56:13;15.03;;;8.43;;
17763;SDS011;22245;52.832;13.816;2022-12-10T04:59:35;12.97;;;7.73;;
17763;SDS011;22245;52.832;13.816;2022-12-10T05:02:57;12.80;;;7.40;;
17763;SDS011;22245;52.832;13.816;2022-12-10T05:06:20;14.80;;;7.30;;
17763;SDS011;22245;52.832;13.816;2022-12-10T05:09:42;12.67;;;7.33;;
17763;SDS011;22245;52.832;13.816;2022-12-10T05:13:03;12.60;;;7.10;;
17763;SDS011;22245;52.832;13.816;2022-12-10T05:16:26;13.63;;;7.60;;
17763;SDS011;22245;52.832;13.816;2022-12-10T05:19:49;13.13;;;7.23;;
17763;SDS011;22245;52.832;13.816;2022-12-10T05:23:13;12.53;;;7.60;;
17763;SDS011;22245;52.832;13.816;2022-12-10T05:26:50;14.63;;;7.70;;
17763;SDS011;22245;52.832;13.816;2022-12-10T05:30:12;13.17;;;7.63;;
17763;SDS011;22245;52.832;13.816;2022-12-10T05:33:34;13.60;;;7.57;;
17763;SDS011;22245;52.832;13.816;2022-12-10T05:36:56;14.27;;;7.07;;
17763;SDS011;22245;52.832;13.816;2022-12-10T05:40:19;12.60;;;6.93;;
17763;SDS011;22245;52.832;13.816;2022-12-10T05:43:41;12.63;;;7.07;;
17763;SDS011;22245;52.832;13.816;2022-12-10T05:47:04;13.20;;;7.30;;
17763;SDS011;22245;52.832;13.816;2022-12-10T05:50:26;13.03;;;7.73;;
17763;SDS011;22245;52.832;13.816;2022-12-10T05:53:49;11.57;;;7.23;;
17763;SDS011;22245;52.832;13.816;2022-12-10T05:57:14;12.33;;;7.37;;
17763;SDS011;22245;52.832;13.816;2022-12-10T06:00:37;11.53;;;7.27;;
17763;SDS011;22245;52.832;13.816;2022-12-10T06:04:00;15.23;;;7.53;;
17763;SDS011;22245;52.832;13.816;2022-12-10T06:07:22;15.47;;;8.00;;
17763;SDS011;22245;52.832;13.816;2022-12-10T06:10:44;13.33;;;7.83;;
17763;SDS011;22245;52.832;13.816;2022-12-10T06:14:08;14.43;;;7.93;;
17763;SDS011;22245;52.832;13.816;2022-12-10T06:17:30;15.07;;;7.93;;
17763;SDS011;22245;52.832;13.816;2022-12-10T06:20:52;12.03;;;7.37;;
17763;SDS011;22245;52.832;13.816;2022-12-10T06:24:14;12.20;;;7.43;;
17763;SDS011;22245;52.832;13.816;2022-12-10T06:27:36;12.93;;;7.70;;
17763;SDS011;22245;52.832;13.816;2022-12-10T06:30:59;12.50;;;7.80;;
17763;SDS011;22245;52.832;13.816;2022-12-10T06:34:21;13.93;;;7.47;;
17763;SDS011;22245;52.832;13.816;2022-12-10T06:37:43;13.60;;;7.97;;
17763;SDS011;22245;52.832;13.816;2022-12-10T06:41:05;12.63;;;7.63;;
17763;SDS011;22245;52.832;13.816;2022-12-10T06:44:29;14.13;;;7.30;;
17763;SDS011;22245;52.832;13.816;2022-12-10T06:47:52;13.93;;;8.20;;
17763;SDS011;22245;52.832;13.816;2022-12-10T06:51:14;13.30;;;7.77;;
17763;SDS011;22245;52.832;13.816;2022-12-10T06:54:37;12.07;;;7.53;;
17763;SDS011;22245;52.832;13.816;2022-12-10T06:58:00;13.10;;;7.97;;
17763;SDS011;22245;52.832;13.816;2022-12-10T07:01:23;13.23;;;7.83;;
17763;SDS011;22245;52.832;13.816;2022-12-10T07:04:48;12.77;;;8.13;;
17763;SDS011;22245;52.832;13.816;2022-12-10T07:08:10;13.70;;;7.90;;
17763;SDS011;22245;52.832;13.816;2022-12-10T07:11:32;13.03;;;7.73;;
17763;SDS011;22245;52.832;13.816;2022-12-10T07:14:54;15.43;;;8.73;;
17763;SDS011;22245;52.832;13.816;2022-12-10T07:18:16;15.10;;;8.77;;
17763;SDS011;22245;52.832;13.816;2022-12-10T07:21:41;16.93;;;9.43;;
17763;SDS011;22245;52.832;13.816;2022-12-10T07:25:06;14.73;;;8.23;;
17763;SDS011;22245;52.832;13.816;2022-12-10T07:28:28;15.00;;;9.17;;
17763;SDS011;22245;52.832;13.816;2022-12-10T07:31:54;16.40;;;9.60;;
17763;SDS011;22245;52.832;13.816;2022-12-10T07:35:16;15.77;;;9.07;;
17763;SDS011;22245;52.832;13.816;2022-12-10T07:38:39;17.30;;;9.73;;
17763;SDS011;22245;52.832;13.816;2022-12-10T07:42:01;19.13;;;10.27;;
17763;SDS011;22245;52.832;13.816;2022-12-10T07:45:23;17.73;;;10.57;;
17763;SDS011;22245;52.832;13.816;2022-12-10T07:48:45;18.13;;;9.77;;
17763;SDS011;22245;52.832;13.816;2022-12-10T07:52:08;18.60;;;10.73;;
17763;SDS011;22245;52.832;13.816;2022-12-10T07:55:31;15.77;;;9.70;;
17763;SDS011;22245;52.832;13.816;2022-12-10T07:58:53;15.40;;;9.60;;
17763;SDS011;22245;52.832;13.816;2022-12-10T08:02:15;18.77;;;10.40;;
17763;SDS011;22245;52.832;13.816;2022-12-10T08:05:37;17.50;;;10.47;;
17763;SDS011;22245;52.832;13.816;2022-12-10T08:08:59;19.17;;;10.70;;
17763;SDS011;22245;52.832;13.816;2022-12-10T08:12:22;19.80;;;10.53;;
17763;SDS011;22245;52.832;13.816;2022-12-10T08:15:44;16.87;;;10.20;;
17763;SDS011;22245;52.832;13.816;2022-12-10T08:19:06;17.93;;;10.50;;
17763;SDS011;22245;52.832;13.816;2022-12-10T08:22:28;17.57;;;10.40;;
17763;SDS011;22245;52.832;13.816;2022-12-10T08:25:50;16.17;;;9.93;;
17763;SDS011;22245;52.832;13.816;2022-12-10T08:29:13;18.20;;;10.17;;
17763;SDS011;22245;52.832;13.816;2022-12-10T08:32:35;18.43;;;10.13;;
17763;SDS011;22245;52.832;13.816;2022-12-10T08:35:57;17.60;;;10.37;;
17763;SDS011;22245;52.832;13.816;2022-12-10T08:39:22;19.80;;;11.10;;
17763;SDS011;22245;52.832;13.816;2022-12-10T08:42:44;18.63;;;10.90;;
17763;SDS011;22245;52.832;13.816;2022-12-10T08:46:07;19.30;;;10.63;;
17763;SDS011;22245;52.832;13.816;2022-12-10T08:49:30;17.27;;;10.33;;
17763;SDS011;22245;52.832;13.816;2022-12-10T08:52:52;17.63;;;10.53;;
17763;SDS011;22245;52.832;13.816;2022-12-10T08:56:14;17.50;;;10.33;;
17763;SDS011;22245;52.832;13.816;2022-12-10T08:59:36;17.70;;;9.90;;
17763;SDS011;22245;52.832;13.816;2022-12-10T09:03:00;18.43;;;10.77;;
17763;SDS011;22245;52.832;13.816;2022-12-10T09:06:23;19.07;;;10.73;;
17763;SDS011;22245;52.832;13.816;2022-12-10T09:09:46;17.53;;;10.67;;
17763;SDS011;22245;52.832;13.816;2022-12-10T09:13:07;15.90;;;9.13;;
17763;SDS011;22245;52.832;13.816;2022-12-10T09:16:30;17.57;;;10.23;;
17763;SDS011;22245;52.832;13.816;2022-12-10T09:19:54;20.03;;;11.03;;
17763;SDS011;22245;52.832;13.816;2022-12-10T09:23:16;18.27;;;10.70;;
17763;SDS011;22245;52.832;13.816;2022-12-10T09:26:38;19.53;;;11.23;;
17763;SDS011;22245;52.832;13.816;2022-12-10T09:29:59;21.70;;;11.00;;
17763;SDS011;22245;52.832;13.816;2022-12-10T09:33:21;21.47;;;11.27;;
17763;SDS011;22245;52.832;13.816;2022-12-10T09:36:44;22.47;;;11.30;;
17763;SDS011;22245;52.832;13.816;2022-12-10T09:40:09;18.63;;;11.10;;
17763;SDS011;22245;52.832;13.816;2022-12-10T09:43:39;18.63;;;10.60;;
17763;SDS011;22245;52.832;13.816;2022-12-10T09:47:08;19.17;;;10.57;;
17763;SDS011;22245;52.832;13.816;2022-12-10T09:50:32;17.43;;;10.90;;
17763;SDS011;22245;52.832;13.816;2022-12-10T09:54:02;18.97;;;10.17;;
17763;SDS011;22245;52.832;13.816;2022-12-10T09:57:32;20.73;;;11.00;;
17763;SDS011;22245;52.832;13.816;2022-12-10T10:00:57;19.27;;;10.47;;
17763;SDS011;22245;52.832;13.816;2022-12-10T10:04:20;17.83;;;10.17;;
17763;SDS011;22245;52.832;13.816;2022-12-10T10:07:43;20.47;;;10.87;;
17763;SDS011;22245;52.832;13.816;2022-12-10T10:11:12;17.57;;;10.37;;
17763;SDS011;22245;52.832;13.816;2022-12-10T10:14:38;19.73;;;11.00;;
17763;SDS011;22245;52.832;13.816;2022-12-10T10:18:02;19.13;;;11.17;;
17763;SDS011;22245;52.832;13.816;2022-12-10T10:21:32;18.93;;;11.17;;
17763;SDS011;22245;52.832;13.816;2022-12-10T10:24:56;19.73;;;11.00;;
17763;SDS011;22245;52.832;13.816;2022-12-10T10:28:23;21.67;;;11.17;;
17763;SDS011;22245;52.832;13.816;2022-12-10T10:31:45;17.63;;;10.07;;
17763;SDS011;22245;52.832;13.816;2022-12-10T10:35:09;19.13;;;10.10;;
17763;SDS011;22245;52.832;13.816;2022-12-10T10:38:48;23.17;;;10.80;;
17763;SDS011;22245;52.832;13.816;2022-12-10T10:42:10;23.13;;;12.30;;
17763;SDS011;22245;52.832;13.816;2022-12-10T10:45:34;19.90;;;12.07;;
17763;SDS011;22245;52.832;13.816;2022-12-10T10:49:11;23.10;;;11.80;;
17763;SDS011;22245;52.832;13.816;2022-12-10T10:52:36;25.80;;;11.03;;
17763;SDS011;22245;52.832;13.816;2022-12-10T10:56:01;25.23;;;11.77;;
17763;SDS011;22245;52.832;13.816;2022-12-10T10:59:29;23.77;;;11.60;;
17763;SDS011;22245;52.832;13.816;2022-12-10T11:02:54;24.73;;;12.27;;
17763;SDS011;22245;52.832;13.816;2022-12-10T11:06:16;25.27;;;11.37;;
17763;SDS011;22245;52.832;13.816;2022-12-10T11:09:38;25.77;;;12.30;;
17763;SDS011;22245;52.832;13.816;2022-12-10T11:13:03;27.40;;;11.57;;
17763;SDS011;22245;52.832;13.816;2022-12-10T11:16:25;26.43;;;11.30;;
17763;SDS011;22245;52.832;13.816;2022-12-10T11:19:55;29.20;;;12.30;;
17763;SDS011;22245;52.832;13.816;2022-12-10T11:23:19;23.67;;;12.00;;
17763;SDS011;22245;52.832;13.816;2022-12-10T11:26:51;24.67;;;11.20;;
17763;SDS011;22245;52.832;13.816;2022-12-10T11:30:19;27.77;;;12.13;;
17763;SDS011;22245;52.832;13.816;2022-12-10T11:33:44;30.53;;;12.57;;
17763;SDS011;22245;52.832;13.816;2022-12-10T11:37:18;30.17;;;12.40;;
17763;SDS011;22245;52.832;13.816;2022-12-10T11:40:56;29.63;;;11.87;;
17763;SDS011;22245;52.832;13.816;2022-12-10T11:44:24;28.67;;;12.57;;
17763;SDS011;22245;52.832;13.816;2022-12-10T11:47:58;30.00;;;12.30;;
17763;SDS011;22245;52.832;13.816;2022-12-10T11:51:33;31.57;;;12.67;;
17763;SDS011;22245;52.832;13.816;2022-12-10T11:55:05;30.17;;;13.17;;
17763;SDS011;22245;52.832;13.816;2022-12-10T11:58:39;32.07;;;12.67;;
17763;SDS011;22245;52.832;13.816;2022-12-10T12:02:20;34.33;;;13.70;;
17763;SDS011;22245;52.832;13.816;2022-12-10T12:06:03;32.57;;;14.20;;
17763;SDS011;22245;52.832;13.816;2022-12-10T12:09:44;38.80;;;13.80;;
17763;SDS011;22245;52.832;13.816;2022-12-10T12:13:18;33.43;;;13.73;;
17763;SDS011;22245;52.832;13.816;2022-12-10T12:16:45;42.20;;;14.40;;
17763;SDS011;22245;52.832;13.816;2022-12-10T12:20:14;32.30;;;12.70;;
17763;SDS011;22245;52.832;13.816;2022-12-10T12:23:43;34.53;;;13.83;;
17763;SDS011;22245;52.832;13.816;2022-12-10T12:27:12;33.87;;;13.23;;
17763;SDS011;22245;52.832;13.816;2022-12-10T12:30:44;37.90;;;13.80;;
17763;SDS011;22245;52.832;13.816;2022-12-10T12:34:13;33.57;;;14.07;;
17763;SDS011;22245;52.832;13.816;2022-12-10T12:37:41;35.30;;;14.13;;
17763;SDS011;22245;52.832;13.816;2022-12-10T12:41:10;36.20;;;14.03;;
17763;SDS011;22245;52.832;13.816;2022-12-10T12:44:47;34.97;;;12.47;;
17763;SDS011;22245;52.832;13.816;2022-12-10T12:48:20;34.17;;;14.13;;
17763;SDS011;22245;52.832;13.816;2022-12-10T12:51:50;40.70;;;13.47;;
17763;SDS011;22245;52.832;13.816;2022-12-10T12:55:18;28.87;;;13.30;;
17763;SDS011;22245;52.832;13.816;2022-12-10T12:58:46;31.63;;;13.40;;
17763;SDS011;22245;52.832;13.816;2022-12-10T13:02:26;32.83;;;13.07;;
17763;SDS011;22245;52.832;13.816;2022-12-10T13:06:17;30.63;;;12.83;;
17763;SDS011;22245;52.832;13.816;2022-12-10T13:09:43;31.53;;;12.77;;
17763;SDS011;22245;52.832;13.816;2022-12-10T13:13:07;38.73;;;14.50;;
17763;SDS011;22245;52.832;13.816;2022-12-10T13:16:48;33.60;;;13.67;;
17763;SDS011;22245;52.832;13.816;2022-12-10T13:20:33;35.63;;;13.47;;
17763;SDS011;22245;52.832;13.816;2022-12-10T13:24:11;31.73;;;13.47;;
17763;SDS011;22245;52.832;13.816;2022-12-10T13:27:33;26.67;;;12.80;;
17763;SDS011;22245;52.832;13.816;2022-12-10T13:31:06;37.20;;;14.43;;
17763;SDS011;22245;52.832;13.816;2022-12-10T13:34:38;29.90;;;13.53;;
17763;SDS011;22245;52.832;13.816;2022-12-10T13:38:04;28.23;;;12.10;;
17763;SDS011;22245;52.832;13.816;2022-12-10T13:41:40;28.90;;;12.07;;
17763;SDS011;22245;52.832;13.816;2022-12-10T13:45:40;28.70;;;12.23;;
17763;SDS011;22245;52.832;13.816;2022-12-10T13:49:02;31.80;;;12.93;;
17763;SDS011;22245;52.832;13.816;2022-12-10T13:52:29;28.37;;;13.20;;
17763;SDS011;22245;52.832;13.816;2022-12-10T13:55:59;29.80;;;12.73;;
17763;SDS011;22245;52.832;13.816;2022-12-10T13:59:30;30.23;;;12.73;;
17763;SDS011;22245;52.832;13.816;2022-12-10T14:07:03;28.53;;;12.60;;
17763;SDS011;22245;52.832;13.816;2022-12-10T14:10:29;31.80;;;13.90;;
17763;SDS011;22245;52.832;13.816;2022-12-10T14:13:54;34.73;;;15.23;;
17763;SDS011;22245;52.832;13.816;2022-12-10T14:17:21;32.20;;;13.97;;
17763;SDS011;22245;52.832;13.816;2022-12-10T14:20:53;28.47;;;13.43;;
17763;SDS011;22245;52.832;13.816;2022-12-10T14:24:26;27.50;;;12.70;;
17763;SDS011;22245;52.832;13.816;2022-12-10T14:27:49;26.20;;;12.40;;
17763;SDS011;22245;52.832;13.816;2022-12-10T14:31:13;25.17;;;12.33;;
17763;SDS011;22245;52.832;13.816;2022-12-10T14:34:40;27.07;;;12.53;;
17763;SDS011;22245;52.832;13.816;2022-12-10T14:38:02;27.90;;;12.33;;
17763;SDS011;22245;52.832;13.816;2022-12-10T14:41:23;24.63;;;11.93;;
17763;SDS011;22245;52.832;13.816;2022-12-10T14:44:49;22.53;;;12.60;;
17763;SDS011;22245;52.832;13.816;2022-12-10T14:48:25;27.47;;;11.83;;
17763;SDS011;22245;52.832;13.816;2022-12-10T14:51:49;27.93;;;11.70;;
17763;SDS011;22245;52.832;13.816;2022-12-10T14:55:12;27.40;;;13.57;;
17763;SDS011;22245;52.832;13.816;2022-12-10T14:58:36;30.30;;;13.20;;
17763;SDS011;22245;52.832;13.816;2022-12-10T15:02:02;25.83;;;12.80;;
17763;SDS011;22245;52.832;13.816;2022-12-10T15:05:35;25.53;;;11.83;;
17763;SDS011;22245;52.832;13.816;2022-12-10T15:08:59;26.53;;;11.97;;
17763;SDS011;22245;52.832;13.816;2022-12-10T15:12:27;22.87;;;11.27;;
17763;SDS011;22245;52.832;13.816;2022-12-10T15:15:52;23.97;;;11.67;;
17763;SDS011;22245;52.832;13.816;2022-12-10T15:19:19;25.07;;;11.47;;
17763;SDS011;22245;52.832;13.816;2022-12-10T15:22:43;25.80;;;13.30;;
17763;SDS011;22245;52.832;13.816;2022-12-10T15:26:09;22.43;;;11.63;;
17763;SDS011;22245;52.832;13.816;2022-12-10T15:29:38;23.97;;;11.47;;
17763;SDS011;22245;52.832;13.816;2022-12-10T15:33:00;25.40;;;12.27;;
17763;SDS011;22245;52.832;13.816;2022-12-10T15:36:25;24.50;;;11.80;;
17763;SDS011;22245;52.832;13.816;2022-12-10T15:39:53;27.47;;;12.63;;
17763;SDS011;22245;52.832;13.816;2022-12-10T15:43:23;26.70;;;12.47;;
17763;SDS011;22245;52.832;13.816;2022-12-10T15:46:47;25.10;;;12.60;;
17763;SDS011;22245;52.832;13.816;2022-12-10T15:50:10;26.83;;;13.10;;
17763;SDS011;22245;52.832;13.816;2022-12-10T15:53:34;28.13;;;14.80;;
17763;SDS011;22245;52.832;13.816;2022-12-10T15:56:58;26.30;;;12.40;;
17763;SDS011;22245;52.832;13.816;2022-12-10T16:00:23;25.50;;;12.60;;
17763;SDS011;22245;52.832;13.816;2022-12-10T16:03:47;24.03;;;12.23;;
17763;SDS011;22245;52.832;13.816;2022-12-10T16:07:08;27.67;;;13.60;;
17763;SDS011;22245;52.832;13.816;2022-12-10T16:10:30;23.57;;;12.87;;
17763;SDS011;22245;52.832;13.816;2022-12-10T16:13:53;25.80;;;12.90;;
17763;SDS011;22245;52.832;13.816;2022-12-10T16:17:18;24.03;;;12.80;;
17763;SDS011;22245;52.832;13.816;2022-12-10T16:20:40;24.23;;;13.20;;
17763;SDS011;22245;52.832;13.816;2022-12-10T16:24:02;26.13;;;12.40;;
17763;SDS011;22245;52.832;13.816;2022-12-10T16:27:24;26.47;;;13.10;;
17763;SDS011;22245;52.832;13.816;2022-12-10T16:30:48;27.70;;;13.00;;
17763;SDS011;22245;52.832;13.816;2022-12-10T16:34:14;30.50;;;13.90;;
17763;SDS011;22245;52.832;13.816;2022-12-10T16:37:36;28.77;;;13.03;;
17763;SDS011;22245;52.832;13.816;2022-12-10T16:40:58;24.23;;;12.57;;
17763;SDS011;22245;52.832;13.816;2022-12-10T16:44:20;24.47;;;12.57;;
17763;SDS011;22245;52.832;13.816;2022-12-10T16:47:42;22.87;;;11.27;;
17763;SDS011;22245;52.832;13.816;2022-12-10T16:51:08;30.50;;;13.33;;
17763;SDS011;22245;52.832;13.816;2022-12-10T16:54:35;28.77;;;13.43;;
17763;SDS011;22245;52.832;13.816;2022-12-10T16:57:57;29.13;;;13.67;;
17763;SDS011;22245;52.832;13.816;2022-12-10T17:01:20;25.07;;;12.30;;
17763;SDS011;22245;52.832;13.816;2022-12-10T17:04:43;25.40;;;12.73;;
17763;SDS011;22245;52.832;13.816;2022-12-10T17:08:07;22.73;;;12.73;;
17763;SDS011;22245;52.832;13.816;2022-12-10T17:11:30;28.43;;;13.60;;
17763;SDS011;22245;52.832;13.816;2022-12-10T17:15:09;25.70;;;13.20;;
17763;SDS011;22245;52.832;13.816;2022-12-10T17:18:36;28.47;;;13.93;;
17763;SDS011;22245;52.832;13.816;2022-12-10T17:21:58;27.10;;;13.37;;
17763;SDS011;22245;52.832;13.816;2022-12-10T17:25:22;24.70;;;12.27;;
17763;SDS011;22245;52.832;13.816;2022-12-10T17:28:44;24.37;;;12.40;;
17763;SDS011;22245;52.832;13.816;2022-12-10T17:32:10;26.17;;;12.67;;
17763;SDS011;22245;52.832;13.816;2022-12-10T17:35:34;27.10;;;14.33;;
17763;SDS011;22245;52.832;13.816;2022-12-10T17:38:56;25.83;;;12.67;;
17763;SDS011;22245;52.832;13.816;2022-12-10T17:42:20;25.77;;;12.23;;
17763;SDS011;22245;52.832;13.816;2022-12-10T17:45:42;22.20;;;11.00;;
17763;SDS011;22245;52.832;13.816;2022-12-10T17:49:05;24.47;;;11.87;;
17763;SDS011;22245;52.832;13.816;2022-12-10T17:52:31;24.83;;;12.53;;
17763;SDS011;22245;52.832;13.816;2022-12-10T17:55:54;23.87;;;12.27;;
17763;SDS011;22245;52.832;13.816;2022-12-10T17:59:19;25.37;;;12.53;;
17763;SDS011;22245;52.832;13.816;2022-12-10T18:02:41;26.83;;;12.80;;
17763;SDS011;22245;52.832;13.816;2022-12-10T18:06:03;29.03;;;13.77;;
17763;SDS011;22245;52.832;13.816;2022-12-10T18:09:26;23.77;;;12.87;;
17763;SDS011;22245;52.832;13.816;2022-12-10T18:12:48;23.67;;;12.17;;
17763;SDS011;22245;52.832;13.816;2022-12-10T18:16:11;21.90;;;11.53;;
17763;SDS011;22245;52.832;13.816;2022-12-10T18:19:34;18.77;;;10.03;;
17763;SDS011;22245;52.832;13.816;2022-12-10T18:23:02;18.77;;;10.13;;
17763;SDS011;22245;52.832;13.816;2022-12-10T18:26:26;18.60;;;10.17;;
17763;SDS011;22245;52.832;13.816;2022-12-10T18:29:48;19.97;;;9.50;;
17763;SDS011;22245;52.832;13.816;2022-12-10T18:33:11;18.57;;;10.07;;
17763;SDS011;22245;52.832;13.816;2022-12-10T18:36:36;19.47;;;9.97;;
17763;SDS011;22245;52.832;13.816;2022-12-10T18:39:59;25.00;;;11.17;;
17763;SDS011;22245;52.832;13.816;2022-12-10T18:43:21;21.10;;;11.47;;
17763;SDS011;22245;52.832;13.816;2022-12-10T18:46:43;20.93;;;10.73;;
17763;SDS011;22245;52.832;13.816;2022-12-10T18:50:11;24.70;;;11.63;;
17763;SDS011;22245;52.832;13.816;2022-12-10T18:53:39;23.43;;;11.53;;
17763;SDS011;22245;52.832;13.816;2022-12-10T18:57:01;23.27;;;11.13;;
17763;SDS011;22245;52.832;13.816;2022-12-10T19:00:43;23.63;;;12.10;;
17763;SDS011;22245;52.832;13.816;2022-12-10T19:04:05;22.53;;;11.40;;
17763;SDS011;22245;52.832;13.816;2022-12-10T19:07:28;24.90;;;12.50;;
17763;SDS011;22245;52.832;13.816;2022-12-10T19:10:50;26.43;;;11.23;;
17763;SDS011;22245;52.832;13.816;2022-12-10T19:14:12;23.73;;;11.90;;
17763;SDS011;22245;52.832;13.816;2022-12-10T19:17:34;24.77;;;11.70;;
17763;SDS011;22245;52.832;13.816;2022-12-10T19:20:56;25.40;;;12.27;;
17763;SDS011;22245;52.832;13.816;2022-12-10T19:24:19;24.37;;;12.27;;
17763;SDS011;22245;52.832;13.816;2022-12-10T19:27:41;20.87;;;11.33;;
17763;SDS011;22245;52.832;13.816;2022-12-10T19:31:02;23.50;;;11.63;;
17763;SDS011;22245;52.832;13.816;2022-12-10T19:34:24;24.40;;;12.20;;
17763;SDS011;22245;52.832;13.816;2022-12-10T19:37:49;23.47;;;11.57;;
17763;SDS011;22245;52.832;13.816;2022-12-10T19:41:18;22.27;;;11.70;;
17763;SDS011;22245;52.832;13.816;2022-12-10T19:44:40;27.43;;;12.30;;
17763;SDS011;22245;52.832;13.816;2022-12-10T19:48:02;24.30;;;12.57;;
17763;SDS011;22245;52.832;13.816;2022-12-10T19:51:25;25.10;;;12.43;;